createdAt,value
2022-10-01T01:37:39.337Z,13.12
2022-10-01T01:38:39.164Z,13.03
2022-10-01T01:39:39.283Z,12.99
2022-10-01T01:40:39.225Z,13.02
2022-10-01T01:41:39.218Z,12.95
2022-10-01T01:42:39.122Z,12.90
2022-10-01T01:43:39.146Z,12.90
2022-10-01T01:44:39.170Z,12.84
2022-10-01T01:45:39.128Z,12.93
2022-10-01T01:46:39.025Z,12.88
2022-10-01T01:47:38.989Z,12.86
2022-10-01T01:48:38.980Z,12.87
2022-10-01T01:49:38.996Z,12.88
2022-10-01T01:50:39.013Z,12.83
2022-10-01T01:51:38.953Z,12.86
2022-10-01T01:52:38.949Z,12.86
2022-10-01T01:53:38.905Z,12.86
2022-10-01T01:54:38.841Z,12.86
2022-10-01T01:55:38.801Z,12.76
2022-10-01T01:56:38.890Z,12.75
2022-10-01T01:57:38.800Z,12.76
2022-10-01T01:58:38.765Z,12.78
2022-10-01T01:59:38.773Z,12.70
2022-10-01T02:00:38.670Z,12.76
2022-10-01T02:01:39.218Z,12.73
2022-10-01T02:02:38.736Z,12.72
2022-10-01T02:03:38.656Z,12.61
2022-10-01T02:04:38.626Z,12.62
2022-10-01T02:05:38.598Z,12.68
2022-10-01T02:06:38.659Z,12.70
2022-10-01T02:07:38.562Z,12.62
2022-10-01T02:08:38.560Z,12.65
2022-10-01T02:09:38.482Z,12.66
2022-10-01T02:10:38.464Z,12.58
2022-10-01T02:11:38.542Z,12.53
2022-10-01T02:12:38.487Z,12.63
2022-10-01T02:13:38.437Z,12.58
2022-10-01T02:14:38.394Z,12.61
2022-10-01T02:15:38.419Z,12.55
2022-10-01T02:16:38.431Z,12.58
2022-10-01T02:17:38.350Z,12.53
2022-10-01T02:18:38.314Z,12.51
2022-10-01T02:19:38.262Z,12.58
2022-10-01T02:20:38.289Z,12.57
2022-10-01T02:21:38.242Z,12.51
2022-10-01T02:22:38.238Z,12.50
2022-10-01T02:23:38.176Z,12.48
2022-10-01T02:24:38.180Z,12.53
2022-10-01T02:25:38.143Z,12.51
2022-10-01T02:26:38.188Z,12.45
2022-10-01T02:27:38.198Z,12.47
2022-10-01T02:28:38.151Z,12.54
2022-10-01T02:29:38.056Z,12.44
2022-10-01T02:30:38.051Z,12.50
2022-10-01T02:31:38.481Z,12.39
2022-10-01T02:32:37.992Z,12.39
2022-10-01T02:33:37.954Z,12.44
2022-10-01T02:34:37.941Z,12.33
2022-10-01T02:35:37.917Z,12.40
2022-10-01T02:36:37.909Z,12.37
2022-10-01T02:37:38.219Z,12.30
2022-10-01T02:38:37.900Z,12.29
2022-10-01T02:39:37.857Z,12.25
2022-10-01T02:40:37.771Z,12.21
2022-10-01T02:41:37.779Z,12.25
2022-10-01T02:42:37.759Z,12.21
2022-10-01T02:43:42.623Z,12.28
2022-10-01T02:44:37.740Z,12.26
2022-10-01T02:45:37.718Z,12.26
2022-10-01T02:46:37.715Z,12.26
2022-10-01T02:47:37.661Z,12.12
2022-10-01T02:48:37.661Z,12.15
2022-10-01T02:49:37.596Z,12.14
2022-10-01T02:50:37.623Z,12.18
2022-10-01T02:51:37.519Z,12.17
2022-10-01T02:52:37.498Z,12.15
2022-10-01T02:53:37.475Z,12.20
2022-10-01T02:54:37.451Z,12.17
2022-10-01T02:55:37.430Z,12.12
2022-10-01T02:56:37.408Z,12.17
2022-10-01T02:57:37.400Z,12.17
2022-10-01T02:58:37.361Z,12.12
2022-10-01T02:59:37.338Z,12.14
2022-10-01T03:00:37.314Z,12.11
2022-10-01T03:01:37.675Z,12.14
2022-10-01T03:02:37.317Z,12.12
2022-10-01T03:03:37.246Z,12.12
2022-10-01T03:04:37.224Z,12.18
2022-10-01T03:05:37.200Z,12.11
2022-10-01T03:06:37.186Z,12.14
2022-10-01T03:07:37.155Z,12.11
2022-10-01T03:08:37.135Z,12.10
2022-10-01T03:09:37.112Z,12.18
2022-10-01T03:10:37.090Z,12.11
2022-10-01T03:11:37.065Z,12.00
2022-10-01T03:12:37.044Z,12.07
2022-10-01T03:13:37.035Z,12.00
2022-10-01T03:14:36.998Z,12.11
2022-10-01T03:15:37.010Z,12.11
2022-10-01T03:16:36.950Z,12.10
2022-10-01T03:17:36.928Z,12.07
2022-10-01T03:18:36.907Z,12.00
2022-10-01T03:19:36.882Z,11.97
2022-10-01T03:20:36.863Z,11.96
2022-10-01T03:21:37.011Z,12.05
2022-10-01T03:22:36.816Z,12.08
2022-10-01T03:23:36.791Z,11.97
2022-10-01T03:24:36.770Z,12.11
2022-10-01T03:25:36.746Z,12.08
2022-10-01T03:26:36.726Z,12.00
2022-10-01T03:27:36.701Z,12.05
2022-10-01T03:28:36.685Z,12.05
2022-10-01T03:29:36.687Z,12.08
2022-10-01T03:30:36.642Z,11.97
2022-10-01T03:31:37.120Z,12.03
2022-10-01T03:32:36.615Z,12.08
2022-10-01T03:33:36.585Z,12.10
2022-10-01T03:34:36.562Z,12.10
2022-10-01T03:35:36.517Z,12.02
2022-10-01T03:36:36.498Z,12.10
2022-10-01T03:37:36.474Z,12.12
2022-10-01T03:38:36.451Z,12.11
2022-10-01T03:39:36.434Z,12.11
2022-10-01T03:40:36.406Z,12.12
2022-10-01T03:41:36.659Z,12.10
2022-10-01T03:42:36.365Z,12.11
2022-10-01T03:43:36.340Z,12.20
2022-10-01T03:44:36.313Z,12.14
2022-10-01T03:45:36.386Z,12.21
2022-10-01T03:46:36.273Z,12.12
2022-10-01T03:47:36.244Z,12.17
2022-10-01T03:48:36.223Z,12.15
2022-10-01T03:49:36.200Z,12.18
2022-10-01T03:50:36.179Z,12.21
2022-10-01T03:51:36.642Z,12.11
2022-10-01T03:52:36.132Z,12.14
2022-10-01T03:53:36.111Z,12.12
2022-10-01T03:54:36.088Z,12.14
2022-10-01T03:55:36.064Z,12.15
2022-10-01T03:56:36.044Z,12.15
2022-10-01T03:57:36.019Z,12.17
2022-10-01T03:58:35.997Z,12.18
2022-10-01T03:59:35.971Z,12.23
2022-10-01T04:00:35.953Z,12.26
2022-10-01T04:01:36.547Z,12.17
2022-10-01T04:02:36.037Z,12.23
2022-10-01T04:03:35.881Z,12.14
2022-10-01T04:04:35.861Z,12.23
2022-10-01T04:05:35.841Z,12.14
2022-10-01T04:06:35.816Z,12.20
2022-10-01T04:07:35.791Z,12.20
2022-10-01T04:08:35.768Z,12.15
2022-10-01T04:09:35.746Z,12.15
2022-10-01T04:10:35.727Z,12.17
2022-10-01T04:11:35.979Z,12.12
2022-10-01T04:12:35.676Z,12.12
2022-10-01T04:13:35.660Z,12.14
2022-10-01T04:14:35.633Z,12.21
2022-10-01T04:15:35.610Z,12.14
2022-10-01T04:16:35.670Z,12.21
2022-10-01T04:17:35.596Z,12.15
2022-10-01T04:18:35.540Z,12.21
2022-10-01T04:19:35.516Z,12.15
2022-10-01T04:20:35.495Z,12.15
2022-10-01T04:21:35.917Z,12.14
2022-10-01T04:22:35.450Z,12.12
2022-10-01T04:23:35.426Z,12.20
2022-10-01T04:24:35.404Z,12.17
2022-10-01T04:25:35.382Z,12.21
2022-10-01T04:26:35.357Z,12.15
2022-10-01T04:27:35.334Z,12.25
2022-10-01T04:28:35.313Z,12.14
2022-10-01T04:29:39.970Z,12.12
2022-10-01T04:30:35.266Z,12.18
2022-10-01T04:31:36.033Z,12.18
2022-10-01T04:32:35.222Z,12.20
2022-10-01T04:33:35.213Z,12.21
2022-10-01T04:34:35.176Z,12.12
2022-10-01T04:35:35.149Z,12.14
2022-10-01T04:36:35.131Z,12.15
2022-10-01T04:37:35.108Z,12.17
2022-10-01T04:38:35.087Z,12.15
2022-10-01T04:39:35.070Z,12.18
2022-10-01T04:40:35.042Z,12.21
2022-10-01T04:41:35.376Z,12.12
2022-10-01T04:42:34.990Z,12.23
2022-10-01T04:43:34.967Z,12.15
2022-10-01T04:44:34.946Z,12.12
2022-10-01T04:45:34.920Z,12.11
2022-10-01T04:46:34.933Z,12.15
2022-10-01T04:47:37.586Z,12.15
2022-10-01T04:48:34.856Z,12.17
2022-10-01T04:49:34.852Z,12.17
2022-10-01T04:50:34.807Z,12.17
2022-10-01T04:51:35.232Z,12.18
2022-10-01T04:52:34.763Z,12.17
2022-10-01T04:53:34.747Z,12.21
2022-10-01T04:54:34.716Z,12.12
2022-10-01T04:55:34.690Z,12.23
2022-10-01T04:56:34.671Z,12.25
2022-10-01T04:57:34.648Z,12.12
2022-10-01T04:58:34.625Z,12.20
2022-10-01T04:59:34.601Z,12.26
2022-10-01T05:00:34.613Z,12.23
2022-10-01T05:01:34.957Z,12.21
2022-10-01T05:02:34.695Z,12.21
2022-10-01T05:03:34.511Z,12.21
2022-10-01T05:04:34.491Z,12.17
2022-10-01T05:05:34.597Z,12.21
2022-10-01T05:06:34.552Z,12.20
2022-10-01T05:07:34.459Z,12.26
2022-10-01T05:08:34.405Z,12.17
2022-10-01T05:09:34.376Z,12.18
2022-10-01T05:10:34.350Z,12.25
2022-10-01T05:11:34.704Z,12.25
2022-10-01T05:12:34.304Z,12.26
2022-10-01T05:13:34.279Z,12.21
2022-10-01T05:14:34.261Z,12.29
2022-10-01T05:15:34.235Z,12.18
2022-10-01T05:16:34.236Z,12.21
2022-10-01T05:17:34.190Z,12.25
2022-10-01T05:18:34.168Z,12.18
2022-10-01T05:19:34.142Z,12.21
2022-10-01T05:20:34.121Z,12.25
2022-10-01T05:21:34.464Z,12.30
2022-10-01T05:22:34.078Z,12.21
2022-10-01T05:23:34.052Z,12.25
2022-10-01T05:24:34.036Z,12.21
2022-10-01T05:25:34.010Z,12.30
2022-10-01T05:26:33.988Z,12.29
2022-10-01T05:27:33.961Z,12.29
2022-10-01T05:28:34.019Z,12.23
2022-10-01T05:29:33.920Z,12.29
2022-10-01T05:30:33.947Z,12.25
2022-10-01T05:31:34.273Z,12.26
2022-10-01T05:32:33.850Z,12.29
2022-10-01T05:33:33.825Z,12.26
2022-10-01T05:34:33.805Z,12.29
2022-10-01T05:35:33.778Z,12.39
2022-10-01T05:36:33.759Z,12.35
2022-10-01T05:37:33.752Z,12.30
2022-10-01T05:38:33.713Z,12.35
2022-10-01T05:39:33.688Z,12.32
2022-10-01T05:40:33.669Z,12.32
2022-10-01T05:41:33.892Z,12.37
2022-10-01T05:42:33.621Z,12.40
2022-10-01T05:43:33.598Z,12.37
2022-10-01T05:44:33.578Z,12.40
2022-10-01T05:45:33.618Z,12.36
2022-10-01T05:46:33.530Z,12.40
2022-10-01T05:47:33.506Z,12.37
2022-10-01T05:48:33.486Z,12.32
2022-10-01T05:49:33.461Z,12.33
2022-10-01T05:50:33.441Z,12.39
2022-10-01T05:51:33.741Z,12.35
2022-10-01T05:52:33.393Z,12.43
2022-10-01T05:53:33.390Z,12.36
2022-10-01T05:54:33.351Z,12.43
2022-10-01T05:55:33.366Z,12.43
2022-10-01T05:56:33.304Z,12.50
2022-10-01T05:57:33.288Z,12.44
2022-10-01T05:58:33.259Z,12.48
2022-10-01T05:59:33.237Z,12.53
2022-10-01T06:00:33.217Z,12.47
2022-10-01T06:01:33.451Z,12.47
2022-10-01T06:02:33.240Z,12.53
2022-10-01T06:03:33.145Z,12.53
2022-10-01T06:04:36.662Z,12.45
2022-10-01T06:05:33.104Z,12.51
2022-10-01T06:06:33.079Z,12.44
2022-10-01T06:07:33.056Z,12.44
2022-10-01T06:08:33.033Z,12.48
2022-10-01T06:09:33.027Z,12.50
2022-10-01T06:10:32.988Z,12.48
2022-10-01T06:11:33.243Z,12.57
2022-10-01T06:12:32.941Z,12.54
2022-10-01T06:13:32.919Z,12.45
2022-10-01T06:14:32.895Z,12.61
2022-10-01T06:15:32.876Z,12.57
2022-10-01T06:16:33.052Z,12.55
2022-10-01T06:17:32.830Z,12.61
2022-10-01T06:18:32.808Z,12.55
2022-10-01T06:19:32.786Z,12.55
2022-10-01T06:20:32.763Z,12.55
2022-10-01T06:21:32.991Z,12.58
2022-10-01T06:22:32.719Z,12.58
2022-10-01T06:23:32.693Z,12.53
2022-10-01T06:24:32.670Z,12.57
2022-10-01T06:25:32.710Z,12.61
2022-10-01T06:26:32.626Z,12.57
2022-10-01T06:27:32.607Z,12.63
2022-10-01T06:28:32.735Z,12.61
2022-10-01T06:29:32.561Z,12.63
2022-10-01T06:30:32.535Z,12.63
2022-10-01T06:31:32.910Z,12.58
2022-10-01T06:32:34.949Z,12.65
2022-10-01T06:33:32.471Z,12.61
2022-10-01T06:34:32.446Z,12.65
2022-10-01T06:35:32.425Z,12.65
2022-10-01T06:36:32.400Z,12.68
2022-10-01T06:37:32.381Z,12.61
2022-10-01T06:38:32.375Z,12.62
2022-10-01T06:39:32.336Z,12.66
2022-10-01T06:40:32.347Z,12.62
2022-10-01T06:41:32.610Z,12.65
2022-10-01T06:42:32.269Z,12.61
2022-10-01T06:43:32.245Z,12.62
2022-10-01T06:44:32.222Z,12.68
2022-10-01T06:45:32.261Z,12.58
2022-10-01T06:46:32.187Z,12.66
2022-10-01T06:47:32.162Z,12.69
2022-10-01T06:48:32.132Z,12.65
2022-10-01T06:49:32.112Z,12.78
2022-10-01T06:50:32.099Z,12.76
2022-10-01T06:51:32.470Z,12.78
2022-10-01T06:52:32.044Z,12.81
2022-10-01T06:53:32.024Z,12.80
2022-10-01T06:54:32.000Z,12.76
2022-10-01T06:55:31.977Z,12.78
2022-10-01T06:56:31.954Z,12.76
2022-10-01T06:57:31.961Z,12.75
2022-10-01T06:58:31.910Z,12.84
2022-10-01T06:59:31.890Z,12.88
2022-10-01T07:00:31.865Z,12.88
2022-10-01T07:01:32.308Z,12.87
2022-10-01T07:02:31.895Z,12.83
2022-10-01T07:03:31.803Z,12.84
2022-10-01T07:04:31.776Z,12.84
2022-10-01T07:05:31.755Z,12.91
2022-10-01T07:06:31.731Z,12.84
2022-10-01T07:07:31.713Z,12.94
2022-10-01T07:08:31.691Z,12.87
2022-10-01T07:09:31.667Z,12.93
2022-10-01T07:10:31.643Z,12.88
2022-10-01T07:11:31.914Z,12.94
2022-10-01T07:12:31.602Z,13.05
2022-10-01T07:13:31.595Z,13.03
2022-10-01T07:14:31.556Z,13.01
2022-10-01T07:15:31.542Z,12.99
2022-10-01T07:16:31.615Z,12.99
2022-10-01T07:17:31.489Z,13.06
2022-10-01T07:18:31.467Z,13.02
2022-10-01T07:19:31.448Z,13.06
2022-10-01T07:20:31.419Z,13.08
2022-10-01T07:21:31.825Z,13.05
2022-10-01T07:22:31.467Z,13.05
2022-10-01T07:23:31.366Z,13.09
2022-10-01T07:24:31.334Z,13.12
2022-10-01T07:25:31.315Z,13.13
2022-10-01T07:26:31.289Z,13.11
2022-10-01T07:27:31.267Z,13.13
2022-10-01T07:28:31.244Z,13.12
2022-10-01T07:29:31.241Z,13.11
2022-10-01T07:30:31.200Z,13.20
2022-10-01T07:31:31.295Z,13.16
2022-10-01T07:32:31.154Z,13.19
2022-10-01T07:33:31.140Z,13.23
2022-10-01T07:34:31.118Z,13.24
2022-10-01T07:35:31.088Z,13.28
2022-10-01T07:36:31.067Z,13.20
2022-10-01T07:37:31.045Z,13.37
2022-10-01T07:38:31.022Z,13.33
2022-10-01T07:39:31.001Z,13.39
2022-10-01T07:40:30.979Z,13.45
2022-10-01T07:41:31.193Z,13.46
2022-10-01T07:42:30.934Z,13.43
2022-10-01T07:43:30.913Z,13.47
2022-10-01T07:44:30.892Z,13.45
2022-10-01T07:45:30.961Z,13.46
2022-10-01T07:46:34.645Z,13.52
2022-10-01T07:47:30.826Z,13.52
2022-10-01T07:48:30.803Z,13.55
2022-10-01T07:49:30.782Z,13.54
2022-10-01T07:50:30.759Z,13.60
2022-10-01T07:51:30.919Z,13.55
2022-10-01T07:52:30.715Z,13.68
2022-10-01T07:53:30.697Z,13.61
2022-10-01T07:54:30.671Z,13.60
2022-10-01T07:55:30.668Z,13.67
2022-10-01T07:56:30.626Z,13.61
2022-10-01T07:57:30.608Z,13.57
2022-10-01T07:58:30.588Z,13.65
2022-10-01T07:59:30.563Z,13.67
2022-10-01T08:00:30.544Z,13.61
2022-10-01T08:01:30.597Z,13.75
2022-10-01T08:02:30.575Z,13.71
2022-10-01T08:03:30.478Z,13.73
2022-10-01T08:04:30.450Z,13.68
2022-10-01T08:05:30.432Z,13.78
2022-10-01T08:06:30.408Z,13.83
2022-10-01T08:07:30.395Z,13.86
2022-10-01T08:08:30.366Z,13.78
2022-10-01T08:09:30.347Z,13.80
2022-10-01T08:10:30.326Z,13.82
2022-10-01T08:11:30.302Z,13.83
2022-10-01T08:12:30.276Z,13.86
2022-10-01T08:13:30.261Z,13.91
2022-10-01T08:14:30.238Z,13.91
2022-10-01T08:15:30.214Z,13.91
2022-10-01T08:16:30.284Z,13.94
2022-10-01T08:17:30.187Z,13.95
2022-10-01T08:18:30.151Z,13.93
2022-10-01T08:19:30.129Z,13.86
2022-10-01T08:20:30.104Z,13.89
2022-10-01T08:21:30.085Z,13.89
2022-10-01T08:22:30.061Z,13.91
2022-10-01T08:23:30.042Z,14.00
2022-10-01T08:24:30.019Z,14.03
2022-10-01T08:25:30.017Z,14.04
2022-10-01T08:26:29.973Z,14.04
2022-10-01T08:27:29.968Z,14.08
2022-10-01T08:28:30.120Z,14.07
2022-10-01T08:29:29.918Z,14.07
2022-10-01T08:30:29.892Z,14.08
2022-10-01T08:31:29.890Z,14.20
2022-10-01T08:32:29.847Z,14.18
2022-10-01T08:33:29.844Z,14.18
2022-10-01T08:34:29.805Z,14.20
2022-10-01T08:35:29.783Z,14.25
2022-10-01T08:36:29.758Z,14.23
2022-10-01T08:37:29.744Z,14.18
2022-10-01T08:38:29.720Z,14.25
2022-10-01T08:39:29.697Z,14.28
2022-10-01T08:40:29.677Z,14.31
2022-10-01T08:41:29.654Z,14.34
2022-10-01T08:42:29.633Z,14.36
2022-10-01T08:43:29.612Z,14.41
2022-10-01T08:44:29.588Z,14.45
2022-10-01T08:45:29.654Z,14.48
2022-10-01T08:46:29.547Z,14.48
2022-10-01T08:47:29.527Z,14.45
2022-10-01T08:48:29.504Z,14.44
2022-10-01T08:49:29.502Z,14.45
2022-10-01T08:50:29.463Z,14.44
2022-10-01T08:51:29.442Z,14.48
2022-10-01T08:52:29.419Z,14.49
2022-10-01T08:53:29.396Z,14.51
2022-10-01T08:54:29.378Z,14.53
2022-10-01T08:55:29.354Z,14.49
2022-10-01T08:56:29.332Z,14.52
2022-10-01T08:57:29.312Z,14.53
2022-10-01T08:58:29.290Z,14.48
2022-10-01T08:59:29.269Z,14.59
2022-10-01T09:00:29.246Z,14.58
2022-10-01T09:01:29.295Z,14.51
2022-10-01T09:02:29.208Z,14.59
2022-10-01T09:03:29.184Z,14.71
2022-10-01T09:04:29.247Z,14.68
2022-10-01T09:05:29.164Z,14.59
2022-10-01T09:06:29.122Z,14.62
2022-10-01T09:07:29.098Z,14.71
2022-10-01T09:08:29.079Z,14.62
2022-10-01T09:09:29.059Z,14.66
2022-10-01T09:10:29.038Z,14.71
2022-10-01T09:11:29.016Z,14.71
2022-10-01T09:12:28.995Z,14.66
2022-10-01T09:13:28.974Z,14.68
2022-10-01T09:14:28.949Z,14.73
2022-10-01T09:15:28.933Z,14.74
2022-10-01T09:16:28.982Z,14.78
2022-10-01T09:17:28.891Z,14.70
2022-10-01T09:18:28.867Z,14.92
2022-10-01T09:19:28.848Z,14.94
2022-10-01T09:20:28.825Z,14.93
2022-10-01T09:21:28.822Z,14.90
2022-10-01T09:22:28.783Z,14.99
2022-10-01T09:23:28.760Z,15.04
2022-10-01T09:24:28.741Z,15.05
2022-10-01T09:25:28.721Z,14.99
2022-10-01T09:26:28.696Z,15.04
2022-10-01T09:27:28.679Z,15.07
2022-10-01T09:28:28.737Z,15.00
2022-10-01T09:29:28.636Z,15.04
2022-10-01T09:30:28.611Z,15.04
2022-10-01T09:31:28.674Z,15.07
2022-10-01T09:32:28.569Z,15.04
2022-10-01T09:33:28.554Z,15.04
2022-10-01T09:34:28.529Z,15.14
2022-10-01T09:35:28.511Z,15.04
2022-10-01T09:36:28.487Z,15.04
2022-10-01T09:37:28.491Z,15.04
2022-10-01T09:38:28.446Z,15.08
2022-10-01T09:39:28.425Z,15.17
2022-10-01T09:40:28.404Z,15.12
2022-10-01T09:41:28.384Z,15.14
2022-10-01T09:42:28.363Z,15.17
2022-10-01T09:43:28.341Z,15.15
2022-10-01T09:44:28.320Z,15.25
2022-10-01T09:45:28.400Z,15.25
2022-10-01T09:46:28.279Z,15.26
2022-10-01T09:47:28.260Z,15.22
2022-10-01T09:48:28.237Z,15.30
2022-10-01T09:49:28.216Z,15.26
2022-10-01T09:50:28.197Z,15.36
2022-10-01T09:51:28.175Z,15.32
2022-10-01T09:52:28.153Z,15.32
2022-10-01T09:53:28.149Z,15.22
2022-10-01T09:54:28.110Z,15.36
2022-10-01T09:55:28.092Z,15.39
2022-10-01T09:56:28.068Z,15.35
2022-10-01T09:57:28.051Z,15.39
2022-10-01T09:58:28.028Z,15.37
2022-10-01T09:59:28.007Z,15.47
2022-10-01T10:00:27.988Z,15.45
2022-10-01T10:01:27.983Z,15.43
2022-10-01T10:02:28.099Z,15.48
2022-10-01T10:03:28.069Z,15.51
2022-10-01T10:04:27.905Z,15.52
2022-10-01T10:05:27.885Z,15.57
2022-10-01T10:06:27.863Z,15.51
2022-10-01T10:07:27.843Z,15.55
2022-10-01T10:08:27.823Z,15.59
2022-10-01T10:09:27.820Z,15.55
2022-10-01T10:10:27.789Z,15.60
2022-10-01T10:11:27.758Z,15.59
2022-10-01T10:12:27.740Z,15.75
2022-10-01T10:13:27.720Z,15.69
2022-10-01T10:14:27.701Z,15.83
2022-10-01T10:15:27.675Z,15.83
2022-10-01T10:16:27.733Z,15.75
2022-10-01T10:17:27.639Z,15.84
2022-10-01T10:18:27.616Z,15.80
2022-10-01T10:19:27.602Z,15.92
2022-10-01T10:20:27.576Z,15.87
2022-10-01T10:21:27.553Z,15.78
2022-10-01T10:22:27.534Z,15.81
2022-10-01T10:23:27.509Z,15.78
2022-10-01T10:24:27.492Z,15.73
2022-10-01T10:25:27.488Z,15.83
2022-10-01T10:26:27.453Z,15.83
2022-10-01T10:27:27.433Z,15.72
2022-10-01T10:28:27.485Z,15.73
2022-10-01T10:29:27.388Z,15.83
2022-10-01T10:30:27.371Z,15.70
2022-10-01T10:31:27.375Z,15.66
2022-10-01T10:32:27.329Z,15.63
2022-10-01T10:33:27.306Z,15.66
2022-10-01T10:34:27.289Z,15.66
2022-10-01T10:35:27.277Z,15.62
2022-10-01T10:36:27.252Z,15.69
2022-10-01T10:37:27.225Z,15.72
2022-10-01T10:38:27.207Z,15.83
2022-10-01T10:39:27.182Z,15.81
2022-10-01T10:40:29.763Z,15.85
2022-10-01T10:41:27.159Z,15.88
2022-10-01T10:42:27.133Z,15.94
2022-10-01T10:43:27.100Z,16.00
2022-10-01T10:44:27.084Z,16.06
2022-10-01T10:45:27.061Z,15.98
2022-10-01T10:46:27.129Z,15.98
2022-10-01T10:47:27.019Z,16.02
2022-10-01T10:48:27.002Z,16.06
2022-10-01T10:49:26.979Z,16.10
2022-10-01T10:50:26.961Z,16.18
2022-10-01T10:51:26.938Z,16.17
2022-10-01T10:52:26.919Z,16.13
2022-10-01T10:53:26.898Z,16.28
2022-10-01T10:54:26.881Z,16.18
2022-10-01T10:55:26.858Z,16.12
2022-10-01T10:56:26.841Z,16.17
2022-10-01T10:57:26.840Z,16.17
2022-10-01T10:58:26.799Z,16.05
2022-10-01T10:59:26.776Z,16.06
2022-10-01T11:00:26.771Z,16.03
2022-10-01T11:01:26.814Z,16.05
2022-10-01T11:02:26.761Z,16.02
2022-10-01T11:03:26.695Z,16.05
2022-10-01T11:04:26.677Z,16.08
2022-10-01T11:05:26.657Z,16.08
2022-10-01T11:06:26.638Z,16.12
2022-10-01T11:07:26.615Z,16.10
2022-10-01T11:08:26.595Z,16.10
2022-10-01T11:09:26.576Z,16.02
2022-10-01T11:10:26.559Z,16.10
2022-10-01T11:11:26.537Z,16.00
2022-10-01T11:12:26.517Z,15.99
2022-10-01T11:13:26.511Z,15.94
2022-10-01T11:14:26.479Z,15.90
2022-10-01T11:15:26.456Z,15.88
2022-10-01T11:16:26.560Z,15.90
2022-10-01T11:17:26.415Z,15.90
2022-10-01T11:18:26.396Z,15.83
2022-10-01T11:19:26.377Z,15.78
2022-10-01T11:20:26.357Z,15.83
2022-10-01T11:21:26.333Z,15.87
2022-10-01T11:22:26.317Z,15.83
2022-10-01T11:23:26.293Z,15.70
2022-10-01T11:24:26.276Z,15.75
2022-10-01T11:25:26.254Z,15.76
2022-10-01T11:26:26.236Z,15.78
2022-10-01T11:27:26.214Z,15.70
2022-10-01T11:28:26.249Z,15.62
2022-10-01T11:29:26.194Z,15.70
2022-10-01T11:30:26.153Z,15.69
2022-10-01T11:31:26.234Z,15.70
2022-10-01T11:32:26.115Z,15.75
2022-10-01T11:33:26.092Z,15.73
2022-10-01T11:34:26.075Z,15.80
2022-10-01T11:35:26.052Z,15.84
2022-10-01T11:36:26.032Z,15.83
2022-10-01T11:37:26.011Z,15.87
2022-10-01T11:38:25.996Z,15.92
2022-10-01T11:39:25.971Z,15.92
2022-10-01T11:40:25.953Z,15.96
2022-10-01T11:41:25.931Z,16.09
2022-10-01T11:42:25.914Z,16.06
2022-10-01T11:43:25.893Z,16.09
2022-10-01T11:44:25.872Z,16.09
2022-10-01T11:45:25.865Z,16.16
2022-10-01T11:46:25.855Z,16.13
2022-10-01T11:47:25.809Z,16.18
2022-10-01T11:48:25.807Z,16.24
2022-10-01T11:49:25.770Z,16.24
2022-10-01T11:50:25.752Z,16.29
2022-10-01T11:51:25.728Z,16.32
2022-10-01T11:52:25.711Z,16.31
2022-10-01T11:53:25.691Z,16.39
2022-10-01T11:54:25.670Z,16.32
2022-10-01T11:55:25.646Z,16.26
2022-10-01T11:56:25.630Z,16.32
2022-10-01T11:57:25.605Z,16.31
2022-10-01T11:58:25.588Z,16.39
2022-10-01T11:59:25.566Z,16.37
2022-10-01T12:00:27.430Z,16.32
2022-10-01T12:01:25.545Z,16.40
2022-10-01T12:02:25.586Z,16.39
2022-10-01T12:03:25.488Z,16.49
2022-10-01T12:04:25.466Z,16.50
2022-10-01T12:05:25.523Z,16.44
2022-10-01T12:06:28.439Z,16.49
2022-10-01T12:07:25.405Z,16.51
2022-10-01T12:08:25.387Z,16.46
2022-10-01T12:09:25.365Z,16.46
2022-10-01T12:10:25.346Z,16.51
2022-10-01T12:11:25.327Z,16.49
2022-10-01T12:12:25.310Z,16.50
2022-10-01T12:13:25.285Z,16.39
2022-10-01T12:14:25.265Z,16.41
2022-10-01T12:15:25.245Z,16.43
2022-10-01T12:16:25.293Z,16.36
2022-10-01T12:17:25.222Z,16.37
2022-10-01T12:18:25.185Z,16.32
2022-10-01T12:19:25.162Z,16.29
2022-10-01T12:20:25.150Z,16.32
2022-10-01T12:21:25.128Z,16.17
2022-10-01T12:22:25.109Z,16.31
2022-10-01T12:23:25.083Z,16.18
2022-10-01T12:24:25.065Z,16.16
2022-10-01T12:25:25.042Z,16.10
2022-10-01T12:26:25.026Z,15.94
2022-10-01T12:27:25.001Z,15.85
2022-10-01T12:28:25.014Z,15.85
2022-10-01T12:29:24.963Z,15.65
2022-10-01T12:30:24.947Z,15.60
2022-10-01T12:31:24.989Z,15.60
2022-10-01T12:32:24.902Z,15.55
2022-10-01T12:33:24.899Z,15.55
2022-10-01T12:34:24.862Z,15.39
2022-10-01T12:35:24.844Z,15.43
2022-10-01T12:36:24.825Z,15.37
2022-10-01T12:37:24.800Z,15.51
2022-10-01T12:38:24.783Z,15.57
2022-10-01T12:39:24.760Z,15.51
2022-10-01T12:40:24.742Z,15.44
2022-10-01T12:41:24.723Z,15.52
2022-10-01T12:42:24.701Z,15.59
2022-10-01T12:43:24.676Z,15.55
2022-10-01T12:44:24.659Z,15.69
2022-10-01T12:45:24.637Z,15.62
2022-10-01T12:46:24.702Z,15.60
2022-10-01T12:47:24.598Z,15.65
2022-10-01T12:48:24.580Z,15.78
2022-10-01T12:49:24.577Z,15.76
2022-10-01T12:50:24.543Z,15.73
2022-10-01T12:51:24.518Z,15.72
2022-10-01T12:52:24.499Z,15.72
2022-10-01T12:53:24.477Z,15.78
2022-10-01T12:54:24.462Z,15.67
2022-10-01T12:55:24.434Z,15.66
2022-10-01T12:56:24.422Z,15.67
2022-10-01T12:57:24.408Z,15.78
2022-10-01T12:58:24.378Z,15.72
2022-10-01T12:59:24.368Z,15.78
2022-10-01T13:00:24.337Z,15.78
2022-10-01T13:01:24.372Z,15.90
2022-10-01T13:02:24.365Z,15.88
2022-10-01T13:03:24.273Z,15.94
2022-10-01T13:04:24.257Z,16.02
2022-10-01T13:05:24.255Z,16.03
2022-10-01T13:06:24.215Z,16.13
2022-10-01T13:07:24.192Z,16.17
2022-10-01T13:08:24.173Z,16.21
2022-10-01T13:09:24.653Z,16.24
2022-10-01T13:10:24.136Z,16.39
2022-10-01T13:11:24.112Z,16.34
2022-10-01T13:12:24.094Z,16.39
2022-10-01T13:13:24.073Z,16.49
2022-10-01T13:14:24.052Z,16.50
2022-10-01T13:15:24.031Z,16.59
2022-10-01T13:16:24.072Z,16.46
2022-10-01T13:17:23.990Z,16.61
2022-10-01T13:18:23.970Z,16.54
2022-10-01T13:19:23.950Z,16.49
2022-10-01T13:20:23.933Z,16.49
2022-10-01T13:21:23.929Z,16.61
2022-10-01T13:22:23.894Z,16.49
2022-10-01T13:23:23.869Z,16.64
2022-10-01T13:24:23.852Z,16.64
2022-10-01T13:25:23.834Z,16.69
2022-10-01T13:26:23.812Z,16.77
2022-10-01T13:27:23.790Z,16.80
2022-10-01T13:28:23.880Z,16.83
2022-10-01T13:29:23.752Z,16.91
2022-10-01T13:30:23.731Z,16.83
2022-10-01T13:31:23.773Z,16.89
2022-10-01T13:32:23.691Z,17.02
2022-10-01T13:33:23.670Z,17.09
2022-10-01T13:34:23.652Z,17.16
2022-10-01T13:35:23.627Z,17.16
2022-10-01T13:36:23.610Z,17.12
2022-10-01T13:37:23.612Z,17.32
2022-10-01T13:38:23.570Z,17.41
2022-10-01T13:39:23.548Z,17.47
2022-10-01T13:40:23.530Z,17.54
2022-10-01T13:41:23.512Z,17.66
2022-10-01T13:42:23.498Z,17.60
2022-10-01T13:43:23.468Z,17.78
2022-10-01T13:44:23.450Z,17.73
2022-10-01T13:45:23.430Z,17.87
2022-10-01T13:46:23.464Z,17.86
2022-10-01T13:47:23.390Z,17.79
2022-10-01T13:48:23.375Z,17.65
2022-10-01T13:49:23.352Z,17.56
2022-10-01T13:50:23.332Z,17.53
2022-10-01T13:51:23.312Z,17.50
2022-10-01T13:52:23.293Z,17.52
2022-10-01T13:53:23.289Z,17.54
2022-10-01T13:54:23.256Z,17.54
2022-10-01T13:55:23.232Z,17.53
2022-10-01T13:56:23.215Z,17.57
2022-10-01T13:57:23.197Z,17.53
2022-10-01T13:58:23.176Z,17.54
2022-10-01T13:59:23.155Z,17.54
2022-10-01T14:00:23.141Z,17.56
2022-10-01T14:01:24.448Z,17.47
2022-10-01T14:02:23.225Z,17.41
2022-10-01T14:03:23.078Z,17.47
2022-10-01T14:04:23.055Z,17.46
2022-10-01T14:05:23.038Z,17.54
2022-10-01T14:06:23.016Z,17.53
2022-10-01T14:07:22.998Z,17.53
2022-10-01T14:08:22.979Z,17.52
2022-10-01T14:09:22.974Z,17.56
2022-10-01T14:10:22.940Z,17.53
2022-10-01T14:11:22.918Z,17.56
2022-10-01T14:12:22.905Z,17.59
2022-10-01T14:13:22.878Z,17.56
2022-10-01T14:14:22.859Z,17.57
2022-10-01T14:15:22.840Z,17.59
2022-10-01T14:16:22.842Z,17.54
2022-10-01T14:17:22.800Z,17.60
2022-10-01T14:18:22.781Z,17.63
2022-10-01T14:19:22.759Z,17.63
2022-10-01T14:20:22.740Z,17.53
2022-10-01T14:21:22.721Z,17.60
2022-10-01T14:22:22.703Z,17.66
2022-10-01T14:23:22.680Z,17.56
2022-10-01T14:24:22.660Z,17.46
2022-10-01T14:25:22.728Z,17.17
2022-10-01T14:26:22.621Z,16.95
2022-10-01T14:27:22.603Z,16.76
2022-10-01T14:28:22.715Z,16.47
2022-10-01T14:29:22.567Z,16.32